Dogwood City, Texas
Current Conditions -  °F | °C
As of 11:53 AM on Tuesday 21 Oct 2014 (Local Time) from KTYR Reporting Station
Clear Clear  
Wind Chill: 76°   Ceiling: Unl
Heat Index: 76°   Visibility: 10mi
Dew Point: 52°   Wind: 9mph
Humidity: 43%   Direction: 70°ENE
Pressure: 30.12"   Gusts: NA
Location:  32.2242°N, 95.404°W
Report Text: KTYR 211653Z 07008KT 10SM CLR 24/11 A3012 RMK AO2 SLP193 T02440111
Loading
Personal Weather Stations






























Interactive Weather Map New forecast layout! Learn more

10-Day Weather Forecast

Advertisements
Track Severe Weather on mobile